sensor_id;sensor_type;location;lat;lon;timestamp;pressure;altitude;pressure_sealevel;temperature;humidity
5877;BME280;2964;42.144;24.730;2023-04-19T00:00:53;144229.41;;;10.63;100.00
5877;BME280;2964;42.144;24.730;2023-04-19T00:03:22;144199.31;;;10.51;100.00
5877;BME280;2964;42.144;24.730;2023-04-19T00:05:50;144216.84;;;10.58;100.00
5877;BME280;2964;42.144;24.730;2023-04-19T00:08:19;144242.00;;;10.69;100.00
5877;BME280;2964;42.144;24.730;2023-04-19T00:10:46;144208.03;;;10.55;100.00
5877;BME280;2964;42.144;24.730;2023-04-19T00:13:12;144196.78;;;10.50;100.00
5877;BME280;2964;42.144;24.730;2023-04-19T00:15:39;144193.00;;;10.49;100.00
5877;BME280;2964;42.144;24.730;2023-04-19T00:18:06;144191.75;;;10.48;100.00
5877;BME280;2964;42.144;24.730;2023-04-19T00:20:32;144176.66;;;10.42;100.00
5877;BME280;2964;42.144;24.730;2023-04-19T00:22:59;144164.13;;;10.37;100.00
5877;BME280;2964;42.144;24.730;2023-04-19T00:25:27;144180.41;;;10.43;100.00
5877;BME280;2964;42.144;24.730;2023-04-19T00:27:56;144166.59;;;10.38;100.00
5877;BME280;2964;42.144;24.730;2023-04-19T00:30:22;144096.28;;;10.09;100.00
5877;BME280;2964;42.144;24.730;2023-04-19T00:32:49;144234.44;;;10.66;100.00
5877;BME280;2964;42.144;24.730;2023-04-19T00:35:16;144218.13;;;10.59;100.00
5877;BME280;2964;42.144;24.730;2023-04-19T00:37:43;144201.78;;;10.52;100.00
5877;BME280;2964;42.144;24.730;2023-04-19T00:40:10;144186.72;;;10.46;100.00
5877;BME280;2964;42.144;24.730;2023-04-19T00:42:38;144179.19;;;10.43;100.00
5877;BME280;2964;42.144;24.730;2023-04-19T00:45:06;144189.22;;;10.47;100.00
5877;BME280;2964;42.144;24.730;2023-04-19T00:47:33;144182.94;;;10.45;100.00
5877;BME280;2964;42.144;24.730;2023-04-19T00:50:02;144184.19;;;10.45;100.00
5877;BME280;2964;42.144;24.730;2023-04-19T00:52:29;144209.34;;;10.55;100.00
5877;BME280;2964;42.144;24.730;2023-04-19T00:54:57;144196.78;;;10.50;100.00
5877;BME280;2964;42.144;24.730;2023-04-19T00:57:23;144196.78;;;10.50;100.00
5877;BME280;2964;42.144;24.730;2023-04-19T00:59:53;144177.94;;;10.42;100.00
5877;BME280;2964;42.144;24.730;2023-04-19T01:02:20;144234.44;;;10.66;100.00
5877;BME280;2964;42.144;24.730;2023-04-19T01:04:47;144191.75;;;10.48;100.00
5877;BME280;2964;42.144;24.730;2023-04-19T01:07:14;144169.16;;;10.39;100.00
5877;BME280;2964;42.144;24.730;2023-04-19T01:09:42;144201.78;;;10.52;100.00
5877;BME280;2964;42.144;24.730;2023-04-19T01:12:09;144247.00;;;10.71;100.00
5877;BME280;2964;42.144;24.730;2023-04-19T01:14:35;144047.28;;;9.89;100.00
5877;BME280;2964;42.144;24.730;2023-04-19T01:17:03;144169.16;;;10.39;100.00
5877;BME280;2964;42.144;24.730;2023-04-19T01:19:30;144179.19;;;10.43;100.00
5877;BME280;2964;42.144;24.730;2023-04-19T01:21:59;144164.13;;;10.37;100.00
5877;BME280;2964;42.144;24.730;2023-04-19T01:24:28;144142.72;;;10.28;100.00
5877;BME280;2964;42.144;24.730;2023-04-19T01:26:55;144151.56;;;10.32;100.00
5877;BME280;2964;42.144;24.730;2023-04-19T01:29:22;144098.75;;;10.10;100.00
5877;BME280;2964;42.144;24.730;2023-04-19T01:31:48;144147.72;;;10.30;100.00
5877;BME280;2964;42.144;24.730;2023-04-19T01:34:17;144105.06;;;10.13;100.00
5877;BME280;2964;42.144;24.730;2023-04-19T01:36:44;144131.41;;;10.23;100.00
5877;BME280;2964;42.144;24.730;2023-04-19T01:39:11;144142.72;;;10.28;100.00
5877;BME280;2964;42.144;24.730;2023-04-19T01:41:39;144131.41;;;10.23;100.00
5877;BME280;2964;42.144;24.730;2023-04-19T01:44:06;144111.31;;;10.15;100.00
5877;BME280;2964;42.144;24.730;2023-04-19T01:46:32;144111.31;;;10.15;100.00
5877;BME280;2964;42.144;24.730;2023-04-19T01:49:00;144113.84;;;10.16;100.00
5877;BME280;2964;42.144;24.730;2023-04-19T01:51:27;144123.88;;;10.20;100.00
5877;BME280;2964;42.144;24.730;2023-04-19T01:53:54;144113.84;;;10.16;100.00
5877;BME280;2964;42.144;24.730;2023-04-19T01:56:21;144111.31;;;10.15;100.00
5877;BME280;2964;42.144;24.730;2023-04-19T01:58:49;144167.91;;;10.38;100.00
5877;BME280;2964;42.144;24.730;2023-04-19T02:01:16;144128.91;;;10.22;100.00
5877;BME280;2964;42.144;24.730;2023-04-19T02:03:42;144101.28;;;10.11;100.00
5877;BME280;2964;42.144;24.730;2023-04-19T02:06:10;144108.78;;;10.14;100.00
5877;BME280;2964;42.144;24.730;2023-04-19T02:08:37;144079.94;;;10.02;100.00
5877;BME280;2964;42.144;24.730;2023-04-19T02:11:05;144064.88;;;9.96;100.00
5877;BME280;2964;42.144;24.730;2023-04-19T02:13:32;144064.88;;;9.96;100.00
5877;BME280;2964;42.144;24.730;2023-04-19T02:16:01;144071.13;;;9.99;100.00
5877;BME280;2964;42.144;24.730;2023-04-19T02:18:27;144041.00;;;9.86;100.00
5877;BME280;2964;42.144;24.730;2023-04-19T02:20:55;144053.56;;;9.92;100.00
5877;BME280;2964;42.144;24.730;2023-04-19T02:23:22;144020.94;;;9.78;100.00
5877;BME280;2964;42.144;24.730;2023-04-19T02:25:48;144044.75;;;9.88;100.00
5877;BME280;2964;42.144;24.730;2023-04-19T02:28:15;144009.59;;;9.74;100.00
5877;BME280;2964;42.144;24.730;2023-04-19T02:30:42;144028.47;;;9.81;100.00
5877;BME280;2964;42.144;24.730;2023-04-19T02:33:10;144030.97;;;9.82;100.00
5877;BME280;2964;42.144;24.730;2023-04-19T02:35:36;144033.50;;;9.83;100.00
5877;BME280;2964;42.144;24.730;2023-04-19T02:38:03;144038.50;;;9.85;100.00
5877;BME280;2964;42.144;24.730;2023-04-19T02:40:30;144025.94;;;9.80;100.00
5877;BME280;2964;42.144;24.730;2023-04-19T02:42:57;144038.50;;;9.85;100.00
5877;BME280;2964;42.144;24.730;2023-04-19T02:45:23;144038.50;;;9.85;100.00
5877;BME280;2964;42.144;24.730;2023-04-19T02:47:50;144035.97;;;9.84;100.00
5877;BME280;2964;42.144;24.730;2023-04-19T02:50:18;144029.72;;;9.82;100.00
5877;BME280;2964;42.144;24.730;2023-04-19T02:52:45;144029.72;;;9.82;100.00
5877;BME280;2964;42.144;24.730;2023-04-19T02:55:12;144030.97;;;9.82;100.00
5877;BME280;2964;42.144;24.730;2023-04-19T02:57:38;144047.28;;;9.89;100.00
5877;BME280;2964;42.144;24.730;2023-04-19T03:00:06;144038.50;;;9.85;100.00
5877;BME280;2964;42.144;24.730;2023-04-19T03:02:34;144063.59;;;9.96;100.00
5877;BME280;2964;42.144;24.730;2023-04-19T03:05:01;144053.56;;;9.92;100.00
5877;BME280;2964;42.144;24.730;2023-04-19T03:07:29;144047.28;;;9.89;100.00
5877;BME280;2964;42.144;24.730;2023-04-19T03:09:56;144048.53;;;9.90;100.00
5877;BME280;2964;42.144;24.730;2023-04-19T03:12:23;144041.00;;;9.86;100.00
5877;BME280;2964;42.144;24.730;2023-04-19T03:14:49;144058.56;;;9.94;100.00
5877;BME280;2964;42.144;24.730;2023-04-19T03:17:16;144056.09;;;9.93;100.00
5877;BME280;2964;42.144;24.730;2023-04-19T03:19:42;144048.53;;;9.90;100.00
5877;BME280;2964;42.144;24.730;2023-04-19T03:22:09;144113.84;;;10.16;100.00
5877;BME280;2964;42.144;24.730;2023-04-19T03:24:37;144083.69;;;10.04;100.00
5877;BME280;2964;42.144;24.730;2023-04-19T03:27:04;144073.66;;;10.00;100.00
5877;BME280;2964;42.144;24.730;2023-04-19T03:29:30;144141.47;;;10.28;100.00
5877;BME280;2964;42.144;24.730;2023-04-19T03:31:57;144094.97;;;10.09;100.00
5877;BME280;2964;42.144;24.730;2023-04-19T03:34:24;144077.44;;;10.01;100.00
5877;BME280;2964;42.144;24.730;2023-04-19T03:36:51;144093.75;;;10.08;100.00
5877;BME280;2964;42.144;24.730;2023-04-19T03:39:17;144081.16;;;10.03;100.00
5877;BME280;2964;42.144;24.730;2023-04-19T03:41:45;144066.13;;;9.97;100.00
5877;BME280;2964;42.144;24.730;2023-04-19T03:44:12;144058.56;;;9.94;100.00
5877;BME280;2964;42.144;24.730;2023-04-19T03:46:38;144067.38;;;9.97;100.00
5877;BME280;2964;42.144;24.730;2023-04-19T03:49:05;144064.88;;;9.96;100.00
5877;BME280;2964;42.144;24.730;2023-04-19T03:51:32;144062.34;;;9.95;100.00
5877;BME280;2964;42.144;24.730;2023-04-19T03:53:59;144054.78;;;9.92;100.00
5877;BME280;2964;42.144;24.730;2023-04-19T03:56:25;144058.56;;;9.94;100.00
5877;BME280;2964;42.144;24.730;2023-04-19T03:58:53;144081.16;;;10.03;100.00
5877;BME280;2964;42.144;24.730;2023-04-19T04:01:21;144121.34;;;10.19;100.00
5877;BME280;2964;42.144;24.730;2023-04-19T04:03:48;144101.28;;;10.11;100.00
5877;BME280;2964;42.144;24.730;2023-04-19T04:06:15;144093.75;;;10.08;100.00
5877;BME280;2964;42.144;24.730;2023-04-19T04:08:41;144066.13;;;9.97;100.00
5877;BME280;2964;42.144;24.730;2023-04-19T04:11:08;144098.75;;;10.10;100.00
5877;BME280;2964;42.144;24.730;2023-04-19T04:13:35;144092.50;;;10.08;100.00
5877;BME280;2964;42.144;24.730;2023-04-19T04:16:03;144108.78;;;10.14;100.00
5877;BME280;2964;42.144;24.730;2023-04-19T04:18:30;144120.13;;;10.19;100.00
5877;BME280;2964;42.144;24.730;2023-04-19T04:20:57;144128.91;;;10.22;100.00
5877;BME280;2964;42.144;24.730;2023-04-19T04:23:24;144140.19;;;10.27;100.00
5877;BME280;2964;42.144;24.730;2023-04-19T04:25:55;144151.56;;;10.32;100.00
5877;BME280;2964;42.144;24.730;2023-04-19T04:28:23;144052.31;;;9.91;100.00
5877;BME280;2964;42.144;24.730;2023-04-19T04:30:50;144151.56;;;10.32;100.00
5877;BME280;2964;42.144;24.730;2023-04-19T04:33:18;144177.94;;;10.42;100.00
5877;BME280;2964;42.144;24.730;2023-04-19T04:35:45;144181.72;;;10.44;100.00
5877;BME280;2964;42.144;24.730;2023-04-19T04:38:11;144194.22;;;10.49;100.00
5877;BME280;2964;42.144;24.730;2023-04-19T04:40:38;144215.59;;;10.58;100.00
5877;BME280;2964;42.144;24.730;2023-04-19T04:43:05;144209.34;;;10.55;100.00
5877;BME280;2964;42.144;24.730;2023-04-19T04:45:32;144244.53;;;10.70;100.00
5877;BME280;2964;42.144;24.730;2023-04-19T04:47:59;144302.28;;;10.93;100.00
5877;BME280;2964;42.144;24.730;2023-04-19T04:50:27;144277.16;;;10.83;100.00
5877;BME280;2964;42.144;24.730;2023-04-19T04:52:54;144275.88;;;10.82;100.00
5877;BME280;2964;42.144;24.730;2023-04-19T04:55:21;144289.75;;;10.88;100.00
5877;BME280;2964;42.144;24.730;2023-04-19T04:57:47;144322.41;;;11.01;100.00
5877;BME280;2964;42.144;24.730;2023-04-19T05:00:15;144303.56;;;10.94;100.00
5877;BME280;2964;42.144;24.730;2023-04-19T05:02:42;144353.81;;;11.14;100.00
5877;BME280;2964;42.144;24.730;2023-04-19T05:05:08;144367.63;;;11.20;100.00
5877;BME280;2964;42.144;24.730;2023-04-19T05:07:37;144303.56;;;10.94;100.00
5877;BME280;2964;42.144;24.730;2023-04-19T05:10:05;144392.75;;;11.30;100.00
5877;BME280;2964;42.144;24.730;2023-04-19T05:12:33;144451.81;;;11.54;100.00
5877;BME280;2964;42.144;24.730;2023-04-19T05:14:59;144405.31;;;11.35;100.00
5877;BME280;2964;42.144;24.730;2023-04-19T05:17:26;144458.13;;;11.57;100.00
5877;BME280;2964;42.144;24.730;2023-04-19T05:19:53;144497.06;;;11.73;100.00
5877;BME280;2964;42.144;24.730;2023-04-19T05:22:19;144445.56;;;11.52;100.00
5877;BME280;2964;42.144;24.730;2023-04-19T05:24:47;144438.00;;;11.49;100.00
5877;BME280;2964;42.144;24.730;2023-04-19T05:27:15;144432.97;;;11.47;100.00
5877;BME280;2964;42.144;24.730;2023-04-19T05:29:41;144415.38;;;11.39;100.00
5877;BME280;2964;42.144;24.730;2023-04-19T05:32:08;144480.75;;;11.66;100.00
5877;BME280;2964;42.144;24.730;2023-04-19T05:34:35;144498.38;;;11.73;100.00
5877;BME280;2964;42.144;24.730;2023-04-19T05:37:02;144503.38;;;11.75;100.00
5877;BME280;2964;42.144;24.730;2023-04-19T05:39:29;144537.31;;;11.89;100.00
5877;BME280;2964;42.144;24.730;2023-04-19T05:41:57;144519.72;;;11.82;100.00
5877;BME280;2964;42.144;24.730;2023-04-19T05:44:24;144531.03;;;11.87;100.00
5877;BME280;2964;42.144;24.730;2023-04-19T05:46:51;144591.44;;;12.11;100.00
5877;BME280;2964;42.144;24.730;2023-04-19T05:49:17;144548.69;;;11.94;100.00
5877;BME280;2964;42.144;24.730;2023-04-19T05:51:44;144592.72;;;12.12;100.00
5877;BME280;2964;42.144;24.730;2023-04-19T05:54:11;144580.16;;;12.07;100.00
5877;BME280;2964;42.144;24.730;2023-04-19T05:56:38;144612.81;;;12.20;100.00
5877;BME280;2964;42.144;24.730;2023-04-19T05:59:06;144622.88;;;12.24;100.00
5877;BME280;2964;42.144;24.730;2023-04-19T06:01:35;144645.53;;;12.33;100.00
5877;BME280;2964;42.144;24.730;2023-04-19T06:04:02;144689.56;;;12.51;100.00
5877;BME280;2964;42.144;24.730;2023-04-19T06:06:29;144712.19;;;12.61;100.00
5877;BME280;2964;42.144;24.730;2023-04-19T06:08:56;144739.88;;;12.72;100.00
5877;BME280;2964;42.144;24.730;2023-04-19T06:11:23;144805.34;;;12.99;100.00
5877;BME280;2964;42.144;24.730;2023-04-19T06:13:49;144855.69;;;13.19;100.00
5877;BME280;2964;42.144;24.730;2023-04-19T06:16:17;144849.34;;;13.17;100.00
5877;BME280;2964;42.144;24.730;2023-04-19T06:18:45;144860.69;;;13.21;100.00
5877;BME280;2964;42.144;24.730;2023-04-19T06:21:11;144928.72;;;13.49;100.00
5877;BME280;2964;42.144;24.730;2023-04-19T06:23:38;144989.16;;;13.74;100.00
5877;BME280;2964;42.144;24.730;2023-04-19T06:26:05;144977.84;;;13.69;100.00
5877;BME280;2964;42.144;24.730;2023-04-19T06:28:31;144962.69;;;13.63;100.00
5877;BME280;2964;42.144;24.730;2023-04-19T06:30:58;145042.06;;;13.95;100.00
5877;BME280;2964;42.144;24.730;2023-04-19T06:33:26;145142.81;;;14.36;100.00
5877;BME280;2964;42.144;24.730;2023-04-19T06:35:53;145157.97;;;14.42;100.00
5877;BME280;2964;42.144;24.730;2023-04-19T06:38:19;145223.50;;;14.69;100.00
5877;BME280;2964;42.144;24.730;2023-04-19T06:40:46;145344.50;;;15.18;99.43
5877;BME280;2964;42.144;24.730;2023-04-19T06:43:13;145593.00;;;16.19;97.16
5877;BME280;2964;42.144;24.730;2023-04-19T06:45:39;145717.91;;;16.70;92.56
5877;BME280;2964;42.144;24.730;2023-04-19T06:48:06;145913.63;;;17.50;88.59
5877;BME280;2964;42.144;24.730;2023-04-19T06:50:34;146331.94;;;19.20;80.33
5877;BME280;2964;42.144;24.730;2023-04-19T06:53:01;146693.84;;;20.67;78.05
5877;BME280;2964;42.144;24.730;2023-04-19T06:55:27;146371.16;;;19.36;78.94
5877;BME280;2964;42.144;24.730;2023-04-19T06:57:54;146252.31;;;18.87;80.77
5877;BME280;2964;42.144;24.730;2023-04-19T07:00:21;146120.84;;;18.34;80.76
5877;BME280;2964;42.144;24.730;2023-04-19T07:02:48;145854.28;;;17.26;85.71
5877;BME280;2964;42.144;24.730;2023-04-19T07:05:15;145688.88;;;16.58;85.32
5877;BME280;2964;42.144;24.730;2023-04-19T07:07:43;145717.91;;;16.70;89.24
5877;BME280;2964;42.144;24.730;2023-04-19T07:10:09;145883.34;;;17.38;86.35
5877;BME280;2964;42.144;24.730;2023-04-19T07:12:37;145796.19;;;17.02;88.75
5877;BME280;2964;42.144;24.730;2023-04-19T07:15:04;145904.78;;;17.46;85.74
5877;BME280;2964;42.144;24.730;2023-04-19T07:17:33;145813.88;;;17.09;87.07
5877;BME280;2964;42.144;24.730;2023-04-19T07:20:00;145871.94;;;17.33;82.81
5877;BME280;2964;42.144;24.730;2023-04-19T07:22:27;146201.72;;;18.67;80.41
5877;BME280;2964;42.144;24.730;2023-04-19T07:24:55;146218.13;;;18.74;79.85
5877;BME280;2964;42.144;24.730;2023-04-19T07:27:21;146348.41;;;19.26;75.08
5877;BME280;2964;42.144;24.730;2023-04-19T07:29:48;146676.06;;;20.59;74.85
5877;BME280;2964;42.144;24.730;2023-04-19T07:32:15;146936.97;;;21.65;69.53
5877;BME280;2964;42.144;24.730;2023-04-19T07:34:42;146579.91;;;20.20;69.69
5877;BME280;2964;42.144;24.730;2023-04-19T07:37:10;146665.97;;;20.55;71.15
5877;BME280;2964;42.144;24.730;2023-04-19T07:39:37;146554.59;;;20.10;72.19
5877;BME280;2964;42.144;24.730;2023-04-19T07:42:05;146535.63;;;20.02;72.47
5877;BME280;2964;42.144;24.730;2023-04-19T07:44:31;146463.50;;;19.73;74.07
5877;BME280;2964;42.144;24.730;2023-04-19T07:46:58;146429.34;;;19.59;73.48
5877;BME280;2964;42.144;24.730;2023-04-19T07:49:25;146216.88;;;18.73;74.91
5877;BME280;2964;42.144;24.730;2023-04-19T07:51:51;146245.97;;;18.85;75.38
5877;BME280;2964;42.144;24.730;2023-04-19T07:54:18;146148.63;;;18.45;75.01
5877;BME280;2964;42.144;24.730;2023-04-19T07:56:45;146167.56;;;18.53;75.67
5877;BME280;2964;42.144;24.730;2023-04-19T07:59:13;146173.94;;;18.56;75.14
5877;BME280;2964;42.144;24.730;2023-04-19T08:01:41;146245.97;;;18.85;73.77
5877;BME280;2964;42.144;24.730;2023-04-19T08:04:07;146286.44;;;19.01;75.44
5877;BME280;2964;42.144;24.730;2023-04-19T08:06:35;146343.34;;;19.24;74.72
5877;BME280;2964;42.144;24.730;2023-04-19T08:09:04;146234.56;;;18.80;75.12
5877;BME280;2964;42.144;24.730;2023-04-19T08:11:31;146271.28;;;18.95;74.42
5877;BME280;2964;42.144;24.730;2023-04-19T08:13:57;146309.19;;;19.10;75.35
5877;BME280;2964;42.144;24.730;2023-04-19T08:16:25;146182.78;;;18.59;74.27
5877;BME280;2964;42.144;24.730;2023-04-19T08:18:54;146247.28;;;18.85;75.30
5877;BME280;2964;42.144;24.730;2023-04-19T08:21:20;146281.38;;;18.99;76.42
5877;BME280;2964;42.144;24.730;2023-04-19T08:23:48;146316.78;;;19.14;74.99
5877;BME280;2964;42.144;24.730;2023-04-19T08:26:15;146316.78;;;19.14;72.17
5877;BME280;2964;42.144;24.730;2023-04-19T08:28:42;146405.31;;;19.50;72.01
5877;BME280;2964;42.144;24.730;2023-04-19T08:31:09;146311.72;;;19.12;73.05
5877;BME280;2964;42.144;24.730;2023-04-19T08:33:37;146481.22;;;19.80;68.25
5877;BME280;2964;42.144;24.730;2023-04-19T08:36:04;146583.72;;;20.22;67.38
5877;BME280;2964;42.144;24.730;2023-04-19T08:38:31;146858.41;;;21.33;66.32
5877;BME280;2964;42.144;24.730;2023-04-19T08:40:58;146888.88;;;21.46;64.48
5877;BME280;2964;42.144;24.730;2023-04-19T08:43:29;146448.31;;;19.67;65.69
5877;BME280;2964;42.144;24.730;2023-04-19T08:45:58;146590.03;;;20.24;66.11
5877;BME280;2964;42.144;24.730;2023-04-19T08:48:26;146649.50;;;20.49;65.31
5877;BME280;2964;42.144;24.730;2023-04-19T08:50:55;146474.91;;;19.78;69.48
5877;BME280;2964;42.144;24.730;2023-04-19T08:53:23;146653.28;;;20.50;66.84
5877;BME280;2964;42.144;24.730;2023-04-19T08:55:53;147037.03;;;22.06;63.29
5877;BME280;2964;42.144;24.730;2023-04-19T08:58:23;146966.13;;;21.77;61.69
5877;BME280;2964;42.144;24.730;2023-04-19T09:00:49;146952.19;;;21.71;62.42
5877;BME280;2964;42.144;24.730;2023-04-19T09:03:16;147241.13;;;22.88;58.90
5877;BME280;2964;42.144;24.730;2023-04-19T09:05:43;147419.91;;;23.61;58.79
5877;BME280;2964;42.144;24.730;2023-04-19T09:08:21;147628.03;;;24.45;53.55
5877;BME280;2964;42.144;24.730;2023-04-19T09:10:52;147147.34;;;22.50;56.72
5877;BME280;2964;42.144;24.730;2023-04-19T09:13:19;146739.41;;;20.85;61.80
5877;BME280;2964;42.144;24.730;2023-04-19T09:15:46;146572.31;;;20.17;65.28
5877;BME280;2964;42.144;24.730;2023-04-19T09:18:13;146404.03;;;19.49;65.76
5877;BME280;2964;42.144;24.730;2023-04-19T09:20:41;146273.81;;;18.96;67.02
5877;BME280;2964;42.144;24.730;2023-04-19T09:23:09;146285.19;;;19.01;69.19
5877;BME280;2964;42.144;24.730;2023-04-19T09:25:38;146401.53;;;19.48;68.90
5877;BME280;2964;42.144;24.730;2023-04-19T09:28:08;146197.91;;;18.65;69.46
5877;BME280;2964;42.144;24.730;2023-04-19T09:30:35;146195.38;;;18.64;71.92
5877;BME280;2964;42.144;24.730;2023-04-19T09:33:02;146288.97;;;19.02;70.80
5877;BME280;2964;42.144;24.730;2023-04-19T09:35:38;146245.97;;;18.85;69.51
5877;BME280;2964;42.144;24.730;2023-04-19T09:38:05;146525.50;;;19.98;65.63
5877;BME280;2964;42.144;24.730;2023-04-19T09:40:32;146828.06;;;21.21;63.91
5877;BME280;2964;42.144;24.730;2023-04-19T09:43:00;147172.66;;;22.61;63.32
5877;BME280;2964;42.144;24.730;2023-04-19T09:45:38;147237.31;;;22.87;59.48
5877;BME280;2964;42.144;24.730;2023-04-19T09:48:06;147137.19;;;22.46;59.75
5877;BME280;2964;42.144;24.730;2023-04-19T09:50:33;147175.22;;;22.62;58.64
5877;BME280;2964;42.144;24.730;2023-04-19T09:53:01;147289.34;;;23.08;57.59
5877;BME280;2964;42.144;24.730;2023-04-19T09:55:28;147499.91;;;23.93;55.43
5877;BME280;2964;42.144;24.730;2023-04-19T09:57:55;147543.00;;;24.11;52.84
5877;BME280;2964;42.144;24.730;2023-04-19T10:00:23;147624.22;;;24.43;54.52
5877;BME280;2964;42.144;24.730;2023-04-19T10:02:51;147515.09;;;23.99;54.51
5877;BME280;2964;42.144;24.730;2023-04-19T10:05:22;147477.06;;;23.84;56.42
5877;BME280;2964;42.144;24.730;2023-04-19T10:07:49;147281.72;;;23.05;56.85
5877;BME280;2964;42.144;24.730;2023-04-19T10:10:17;147096.69;;;22.30;59.74
5877;BME280;2964;42.144;24.730;2023-04-19T10:12:47;146752.06;;;20.90;61.19
5877;BME280;2964;42.144;24.730;2023-04-19T10:15:15;146592.56;;;20.25;64.66
5877;BME280;2964;42.144;24.730;2023-04-19T10:17:43;146581.16;;;20.21;63.29
5877;BME280;2964;42.144;24.730;2023-04-19T10:20:19;146531.81;;;20.01;63.67
5877;BME280;2964;42.144;24.730;2023-04-19T10:22:48;146460.97;;;19.72;65.08
5877;BME280;2964;42.144;24.730;2023-04-19T10:25:15;146363.56;;;19.33;63.78
5877;BME280;2964;42.144;24.730;2023-04-19T10:27:43;146388.88;;;19.43;63.74
5877;BME280;2964;42.144;24.730;2023-04-19T10:30:17;146469.88;;;19.76;64.88
5877;BME280;2964;42.144;24.730;2023-04-19T10:32:51;146468.56;;;19.75;63.64
5877;BME280;2964;42.144;24.730;2023-04-19T10:35:19;146491.31;;;19.84;65.25
5877;BME280;2964;42.144;24.730;2023-04-19T10:38:07;146393.91;;;19.45;65.05
5877;BME280;2964;42.144;24.730;2023-04-19T10:40:55;146297.84;;;19.06;63.75
5877;BME280;2964;42.144;24.730;2023-04-19T10:43:25;146397.72;;;19.46;64.31
5877;BME280;2964;42.144;24.730;2023-04-19T10:45:52;146319.34;;;19.15;64.92
5877;BME280;2964;42.144;24.730;2023-04-19T10:48:34;146263.69;;;18.92;64.74
5877;BME280;2964;42.144;24.730;2023-04-19T10:51:04;146358.50;;;19.31;64.86
5877;BME280;2964;42.144;24.730;2023-04-19T10:53:54;146300.34;;;19.07;65.65
5877;BME280;2964;42.144;24.730;2023-04-19T10:59:37;146254.81;;;18.88;66.48
5877;BME280;2964;42.144;24.730;2023-04-19T11:02:27;146304.13;;;19.08;66.07
5877;BME280;2964;42.144;24.730;2023-04-19T11:04:58;146357.25;;;19.30;64.73
5877;BME280;2964;42.144;24.730;2023-04-19T11:07:26;146409.06;;;19.51;67.41
5877;BME280;2964;42.144;24.730;2023-04-19T11:09:52;146433.13;;;19.61;65.46
5877;BME280;2964;42.144;24.730;2023-04-19T11:12:20;146424.28;;;19.57;62.25
5877;BME280;2964;42.144;24.730;2023-04-19T11:14:50;146398.97;;;19.47;61.34
5877;BME280;2964;42.144;24.730;2023-04-19T11:17:19;146362.31;;;19.32;60.61
5877;BME280;2964;42.144;24.730;2023-04-19T11:19:53;146490.09;;;19.84;62.09
5877;BME280;2964;42.144;24.730;2023-04-19T11:22:24;146554.59;;;20.10;61.14
5877;BME280;2964;42.144;24.730;2023-04-19T11:24:51;146521.72;;;19.97;59.16
5877;BME280;2964;42.144;24.730;2023-04-19T11:27:17;146511.59;;;19.93;61.30
5877;BME280;2964;42.144;24.730;2023-04-19T11:29:44;146275.06;;;18.97;61.44
5877;BME280;2964;42.144;24.730;2023-04-19T11:32:12;146238.41;;;18.82;60.64
5877;BME280;2964;42.144;24.730;2023-04-19T11:34:39;146268.78;;;18.94;61.10
5877;BME280;2964;42.144;24.730;2023-04-19T11:37:07;146299.09;;;19.06;61.19
5877;BME280;2964;42.144;24.730;2023-04-19T11:39:43;146426.78;;;19.58;61.09
5877;BME280;2964;42.144;24.730;2023-04-19T11:42:16;146326.88;;;19.18;61.86
5877;BME280;2964;42.144;24.730;2023-04-19T11:44:47;146344.59;;;19.25;61.82
5877;BME280;2964;42.144;24.730;2023-04-19T11:47:16;146273.81;;;18.96;62.60
5877;BME280;2964;42.144;24.730;2023-04-19T11:49:42;146258.63;;;18.90;63.67
5877;BME280;2964;42.144;24.730;2023-04-19T11:52:09;146202.97;;;18.67;63.88
5877;BME280;2964;42.144;24.730;2023-04-19T11:54:36;146095.53;;;18.24;65.07
5877;BME280;2964;42.144;24.730;2023-04-19T11:57:05;146076.59;;;18.16;65.66
5877;BME280;2964;42.144;24.730;2023-04-19T11:59:33;146042.53;;;18.02;65.93
5877;BME280;2964;42.144;24.730;2023-04-19T12:02:07;145983.09;;;17.78;67.43
5877;BME280;2964;42.144;24.730;2023-04-19T12:04:35;145970.47;;;17.73;66.75
5877;BME280;2964;42.144;24.730;2023-04-19T12:07:04;146024.81;;;17.95;67.42
5877;BME280;2964;42.144;24.730;2023-04-19T12:09:33;146027.31;;;17.96;68.74
5877;BME280;2964;42.144;24.730;2023-04-19T12:12:00;146089.25;;;18.21;66.33
5877;BME280;2964;42.144;24.730;2023-04-19T12:14:28;145976.75;;;17.75;69.29
5877;BME280;2964;42.144;24.730;2023-04-19T12:17:09;145846.72;;;17.23;73.60
5877;BME280;2964;42.144;24.730;2023-04-19T12:19:42;145706.56;;;16.66;77.69
5877;BME280;2964;42.144;24.730;2023-04-19T12:22:11;145664.88;;;16.49;79.27
5877;BME280;2964;42.144;24.730;2023-04-19T12:24:38;145538.75;;;15.97;82.92
5877;BME280;2964;42.144;24.730;2023-04-19T12:27:05;145577.84;;;16.13;84.44
5877;BME280;2964;42.144;24.730;2023-04-19T12:29:32;145500.88;;;15.82;87.22
5877;BME280;2964;42.144;24.730;2023-04-19T12:31:59;145587.91;;;16.17;87.00
5877;BME280;2964;42.144;24.730;2023-04-19T12:34:26;145590.47;;;16.18;86.83
5877;BME280;2964;42.144;24.730;2023-04-19T12:36:55;145596.75;;;16.21;87.25
5877;BME280;2964;42.144;24.730;2023-04-19T12:39:22;145581.63;;;16.15;87.48
5877;BME280;2964;42.144;24.730;2023-04-19T12:41:48;145587.91;;;16.17;87.65
5877;BME280;2964;42.144;24.730;2023-04-19T12:44:15;145460.47;;;15.66;90.83
5877;BME280;2964;42.144;24.730;2023-04-19T12:46:42;145463.03;;;15.67;92.29
5877;BME280;2964;42.144;24.730;2023-04-19T12:49:09;145347.00;;;15.19;95.77
5877;BME280;2964;42.144;24.730;2023-04-19T12:51:35;145326.84;;;15.11;96.65
5877;BME280;2964;42.144;24.730;2023-04-19T12:54:03;145326.84;;;15.11;97.44
5877;BME280;2964;42.144;24.730;2023-04-19T12:56:31;145447.91;;;15.60;95.15
5877;BME280;2964;42.144;24.730;2023-04-19T12:58:58;145417.63;;;15.48;94.64
5877;BME280;2964;42.144;24.730;2023-04-19T13:01:25;145397.44;;;15.40;94.45